sensor_id;sensor_type;location;lat;lon;timestamp;P1;durP1;ratioP1;P2;durP2;ratioP2
27383;SDS011;14851;51.166;4.760;2023-04-02T00:07:43;11.93;;;10.82;;
27383;SDS011;14851;51.166;4.760;2023-04-02T00:10:26;12.98;;;11.75;;
27383;SDS011;14851;51.166;4.760;2023-04-02T00:13:18;13.93;;;12.50;;
27383;SDS011;14851;51.166;4.760;2023-04-02T00:15:44;15.55;;;13.95;;
27383;SDS011;14851;51.166;4.760;2023-04-02T00:18:17;14.73;;;13.38;;
27383;SDS011;14851;51.166;4.760;2023-04-02T00:20:46;14.82;;;13.45;;
27383;SDS011;14851;51.166;4.760;2023-04-02T00:23:15;16.38;;;13.55;;
27383;SDS011;14851;51.166;4.760;2023-04-02T00:25:43;15.30;;;13.45;;
27383;SDS011;14851;51.166;4.760;2023-04-02T00:28:14;16.55;;;15.05;;
27383;SDS011;14851;51.166;4.760;2023-04-02T00:30:52;14.93;;;13.35;;
27383;SDS011;14851;51.166;4.760;2023-04-02T00:33:29;14.93;;;13.52;;
27383;SDS011;14851;51.166;4.760;2023-04-02T00:35:58;14.65;;;13.25;;
27383;SDS011;14851;51.166;4.760;2023-04-02T00:38:29;14.25;;;12.80;;
27383;SDS011;14851;51.166;4.760;2023-04-02T00:41:00;14.07;;;12.73;;
27383;SDS011;14851;51.166;4.760;2023-04-02T00:43:30;13.73;;;12.43;;
27383;SDS011;14851;51.166;4.760;2023-04-02T00:46:00;13.40;;;12.10;;
27383;SDS011;14851;51.166;4.760;2023-04-02T00:56:58;13.38;;;12.18;;
27383;SDS011;14851;51.166;4.760;2023-04-02T00:59:29;13.30;;;12.00;;
27383;SDS011;14851;51.166;4.760;2023-04-02T01:01:59;12.98;;;11.27;;
27383;SDS011;14851;51.166;4.760;2023-04-02T01:10:40;13.50;;;11.32;;
27383;SDS011;14851;51.166;4.760;2023-04-02T01:18:46;13.15;;;11.93;;
27383;SDS011;14851;51.166;4.760;2023-04-02T01:24:19;13.07;;;11.77;;
27383;SDS011;14851;51.166;4.760;2023-04-02T01:26:54;13.02;;;11.63;;
27383;SDS011;14851;51.166;4.760;2023-04-02T01:32:04;12.80;;;11.50;;
27383;SDS011;14851;51.166;4.760;2023-04-02T01:34:36;13.13;;;11.93;;
27383;SDS011;14851;51.166;4.760;2023-04-02T01:45:42;13.70;;;12.10;;
27383;SDS011;14851;51.166;4.760;2023-04-02T01:48:13;12.93;;;11.73;;
27383;SDS011;14851;51.166;4.760;2023-04-02T01:50:41;12.70;;;11.50;;
27383;SDS011;14851;51.166;4.760;2023-04-02T01:53:11;12.65;;;11.43;;
27383;SDS011;14851;51.166;4.760;2023-04-02T01:55:43;12.98;;;11.85;;
27383;SDS011;14851;51.166;4.760;2023-04-02T02:01:15;13.13;;;11.82;;
27383;SDS011;14851;51.166;4.760;2023-04-02T02:03:44;13.25;;;12.05;;
27383;SDS011;14851;51.166;4.760;2023-04-02T02:06:15;15.05;;;13.65;;
27383;SDS011;14851;51.166;4.760;2023-04-02T02:08:45;14.20;;;12.73;;
27383;SDS011;14851;51.166;4.760;2023-04-02T02:13:55;14.45;;;13.15;;
27383;SDS011;14851;51.166;4.760;2023-04-02T02:16:40;14.43;;;13.13;;
27383;SDS011;14851;51.166;4.760;2023-04-02T02:19:09;19.35;;;13.98;;
27383;SDS011;14851;51.166;4.760;2023-04-02T02:21:48;16.27;;;14.68;;
27383;SDS011;14851;51.166;4.760;2023-04-02T02:24:24;16.13;;;14.63;;
27383;SDS011;14851;51.166;4.760;2023-04-02T02:26:59;14.77;;;13.20;;
27383;SDS011;14851;51.166;4.760;2023-04-02T02:29:59;15.15;;;13.65;;
27383;SDS011;14851;51.166;4.760;2023-04-02T02:32:30;15.75;;;14.20;;
27383;SDS011;14851;51.166;4.760;2023-04-02T02:35:10;16.65;;;15.05;;
27383;SDS011;14851;51.166;4.760;2023-04-02T02:37:42;16.20;;;14.57;;
27383;SDS011;14851;51.166;4.760;2023-04-02T02:40:19;16.15;;;14.65;;
27383;SDS011;14851;51.166;4.760;2023-04-02T02:42:53;15.77;;;14.35;;
27383;SDS011;14851;51.166;4.760;2023-04-02T02:45:24;16.77;;;15.07;;
27383;SDS011;14851;51.166;4.760;2023-04-02T02:47:55;16.45;;;14.85;;
27383;SDS011;14851;51.166;4.760;2023-04-02T02:50:27;16.85;;;15.25;;
27383;SDS011;14851;51.166;4.760;2023-04-02T02:52:58;16.13;;;14.50;;
27383;SDS011;14851;51.166;4.760;2023-04-02T02:55:30;15.70;;;14.10;;
27383;SDS011;14851;51.166;4.760;2023-04-02T02:58:17;15.63;;;14.07;;
27383;SDS011;14851;51.166;4.760;2023-04-02T03:00:58;15.38;;;13.77;;
27383;SDS011;14851;51.166;4.760;2023-04-02T03:03:27;14.85;;;13.45;;
27383;SDS011;14851;51.166;4.760;2023-04-02T03:06:02;15.35;;;13.73;;
27383;SDS011;14851;51.166;4.760;2023-04-02T03:08:33;14.32;;;12.82;;
27383;SDS011;14851;51.166;4.760;2023-04-02T03:17:18;14.18;;;12.82;;
27383;SDS011;14851;51.166;4.760;2023-04-02T03:19:54;14.95;;;13.48;;
27383;SDS011;14851;51.166;4.760;2023-04-02T03:22:46;14.90;;;13.38;;
27383;SDS011;14851;51.166;4.760;2023-04-02T03:28:21;16.70;;;14.98;;
27383;SDS011;14851;51.166;4.760;2023-04-02T03:33:23;16.83;;;15.23;;
27383;SDS011;14851;51.166;4.760;2023-04-02T03:36:04;17.73;;;15.93;;
27383;SDS011;14851;51.166;4.760;2023-04-02T03:38:40;17.42;;;15.65;;
27383;SDS011;14851;51.166;4.760;2023-04-02T03:43:43;17.48;;;15.52;;
27383;SDS011;14851;51.166;4.760;2023-04-02T03:49:17;18.73;;;16.88;;
27383;SDS011;14851;51.166;4.760;2023-04-02T03:51:53;18.63;;;16.73;;
27383;SDS011;14851;51.166;4.760;2023-04-02T03:54:28;18.45;;;16.65;;
27383;SDS011;14851;51.166;4.760;2023-04-02T03:56:56;18.92;;;16.92;;
27383;SDS011;14851;51.166;4.760;2023-04-02T04:05:04;17.63;;;14.80;;
27383;SDS011;14851;51.166;4.760;2023-04-02T04:07:44;16.60;;;14.85;;
27383;SDS011;14851;51.166;4.760;2023-04-02T04:10:16;16.63;;;15.00;;
27383;SDS011;14851;51.166;4.760;2023-04-02T04:12:47;17.20;;;15.40;;
27383;SDS011;14851;51.166;4.760;2023-04-02T04:15:38;17.38;;;15.32;;
27383;SDS011;14851;51.166;4.760;2023-04-02T04:26:35;15.98;;;14.38;;
27383;SDS011;14851;51.166;4.760;2023-04-02T04:32:18;16.45;;;14.77;;
27383;SDS011;14851;51.166;4.760;2023-04-02T04:34:54;17.05;;;15.00;;
27383;SDS011;14851;51.166;4.760;2023-04-02T04:37:33;16.20;;;14.50;;
27383;SDS011;14851;51.166;4.760;2023-04-02T04:40:12;15.30;;;13.65;;
27383;SDS011;14851;51.166;4.760;2023-04-02T04:43:05;14.82;;;13.32;;
27383;SDS011;14851;51.166;4.760;2023-04-02T04:45:38;15.23;;;13.63;;
27383;SDS011;14851;51.166;4.760;2023-04-02T04:53:20;15.10;;;11.65;;
27383;SDS011;14851;51.166;4.760;2023-04-02T04:55:53;13.93;;;12.35;;
27383;SDS011;14851;51.166;4.760;2023-04-02T04:58:35;11.88;;;10.73;;
27383;SDS011;14851;51.166;4.760;2023-04-02T05:01:11;13.00;;;11.57;;
27383;SDS011;14851;51.166;4.760;2023-04-02T05:23:25;14.95;;;13.35;;
27383;SDS011;14851;51.166;4.760;2023-04-02T05:26:03;17.25;;;15.45;;
27383;SDS011;14851;51.166;4.760;2023-04-02T05:28:32;18.13;;;14.88;;
27383;SDS011;14851;51.166;4.760;2023-04-02T05:31:09;16.58;;;14.88;;
27383;SDS011;14851;51.166;4.760;2023-04-02T05:33:42;17.88;;;15.77;;
27383;SDS011;14851;51.166;4.760;2023-04-02T05:36:18;17.38;;;15.57;;
27383;SDS011;14851;51.166;4.760;2023-04-02T05:38:53;19.42;;;16.02;;
27383;SDS011;14851;51.166;4.760;2023-04-02T05:41:33;19.03;;;15.90;;
27383;SDS011;14851;51.166;4.760;2023-04-02T05:44:20;20.42;;;17.58;;
27383;SDS011;14851;51.166;4.760;2023-04-02T05:46:58;17.50;;;15.70;;
27383;SDS011;14851;51.166;4.760;2023-04-02T05:49:49;17.58;;;15.63;;
27383;SDS011;14851;51.166;4.760;2023-04-02T05:52:45;18.77;;;16.52;;
27383;SDS011;14851;51.166;4.760;2023-04-02T05:55:33;17.17;;;15.38;;
27383;SDS011;14851;51.166;4.760;2023-04-02T05:58:05;18.60;;;16.15;;
27383;SDS011;14851;51.166;4.760;2023-04-02T06:03:11;17.73;;;15.35;;
27383;SDS011;14851;51.166;4.760;2023-04-02T06:05:41;18.33;;;14.77;;
27383;SDS011;14851;51.166;4.760;2023-04-02T06:08:15;15.73;;;13.95;;
27383;SDS011;14851;51.166;4.760;2023-04-02T06:10:47;15.60;;;12.88;;
27383;SDS011;14851;51.166;4.760;2023-04-02T06:13:22;14.43;;;12.95;;
27383;SDS011;14851;51.166;4.760;2023-04-02T06:15:48;14.98;;;13.30;;
27383;SDS011;14851;51.166;4.760;2023-04-02T06:18:23;14.02;;;12.63;;
27383;SDS011;14851;51.166;4.760;2023-04-02T06:21:00;16.55;;;13.52;;
27383;SDS011;14851;51.166;4.760;2023-04-02T06:23:30;16.08;;;12.27;;
27383;SDS011;14851;51.166;4.760;2023-04-02T06:26:08;15.00;;;12.48;;
27383;SDS011;14851;51.166;4.760;2023-04-02T06:28:49;13.55;;;12.15;;
27383;SDS011;14851;51.166;4.760;2023-04-02T06:31:26;13.93;;;11.85;;
27383;SDS011;14851;51.166;4.760;2023-04-02T06:33:57;13.45;;;11.32;;
27383;SDS011;14851;51.166;4.760;2023-04-02T06:36:28;12.73;;;11.13;;
27383;SDS011;14851;51.166;4.760;2023-04-02T06:39:03;10.25;;;9.20;;
27383;SDS011;14851;51.166;4.760;2023-04-02T06:41:32;10.25;;;9.15;;
27383;SDS011;14851;51.166;4.760;2023-04-02T06:44:20;10.32;;;9.18;;
27383;SDS011;14851;51.166;4.760;2023-04-02T06:47:34;11.38;;;9.55;;
27383;SDS011;14851;51.166;4.760;2023-04-02T06:52:45;9.63;;;8.30;;
27383;SDS011;14851;51.166;4.760;2023-04-02T06:58:08;12.70;;;8.88;;
27383;SDS011;14851;51.166;4.760;2023-04-02T07:00:44;11.05;;;8.52;;
27383;SDS011;14851;51.166;4.760;2023-04-02T07:03:22;10.27;;;8.50;;
27383;SDS011;14851;51.166;4.760;2023-04-02T07:05:50;9.73;;;8.30;;
27383;SDS011;14851;51.166;4.760;2023-04-02T07:08:17;14.70;;;9.20;;
27383;SDS011;14851;51.166;4.760;2023-04-02T07:10:43;11.32;;;8.98;;
27383;SDS011;14851;51.166;4.760;2023-04-02T07:13:19;10.75;;;9.10;;
27383;SDS011;14851;51.166;4.760;2023-04-02T07:15:48;10.48;;;9.27;;
27383;SDS011;14851;51.166;4.760;2023-04-02T07:18:37;10.80;;;9.63;;
27383;SDS011;14851;51.166;4.760;2023-04-02T07:21:04;11.55;;;10.18;;
27383;SDS011;14851;51.166;4.760;2023-04-02T07:23:30;12.05;;;10.50;;
27383;SDS011;14851;51.166;4.760;2023-04-02T07:25:58;12.00;;;10.80;;
27383;SDS011;14851;51.166;4.760;2023-04-02T07:28:24;12.68;;;10.93;;
27383;SDS011;14851;51.166;4.760;2023-04-02T07:30:52;12.90;;;10.80;;
27383;SDS011;14851;51.166;4.760;2023-04-02T07:33:19;13.65;;;11.27;;
27383;SDS011;14851;51.166;4.760;2023-04-02T07:35:49;13.45;;;10.80;;
27383;SDS011;14851;51.166;4.760;2023-04-02T07:38:16;11.88;;;10.50;;
27383;SDS011;14851;51.166;4.760;2023-04-02T07:40:43;14.48;;;11.63;;
27383;SDS011;14851;51.166;4.760;2023-04-02T07:43:09;13.23;;;11.07;;
27383;SDS011;14851;51.166;4.760;2023-04-02T07:45:37;12.77;;;10.48;;
27383;SDS011;14851;51.166;4.760;2023-04-02T07:48:04;13.25;;;11.75;;
27383;SDS011;14851;51.166;4.760;2023-04-02T07:50:34;14.27;;;11.52;;
27383;SDS011;14851;51.166;4.760;2023-04-02T07:53:00;15.82;;;11.55;;
27383;SDS011;14851;51.166;4.760;2023-04-02T07:55:27;14.48;;;12.48;;
27383;SDS011;14851;51.166;4.760;2023-04-02T07:57:55;14.20;;;12.70;;
27383;SDS011;14851;51.166;4.760;2023-04-02T08:00:23;14.90;;;13.10;;
27383;SDS011;14851;51.166;4.760;2023-04-02T08:02:51;15.00;;;13.32;;
27383;SDS011;14851;51.166;4.760;2023-04-02T08:05:17;16.90;;;14.40;;
27383;SDS011;14851;51.166;4.760;2023-04-02T08:07:52;15.48;;;13.65;;
27383;SDS011;14851;51.166;4.760;2023-04-02T08:10:20;17.50;;;13.60;;
27383;SDS011;14851;51.166;4.760;2023-04-02T08:12:46;19.42;;;13.07;;
27383;SDS011;14851;51.166;4.760;2023-04-02T08:15:18;16.10;;;12.57;;
27383;SDS011;14851;51.166;4.760;2023-04-02T08:17:45;13.52;;;11.40;;
27383;SDS011;14851;51.166;4.760;2023-04-02T08:20:16;14.85;;;12.00;;
27383;SDS011;14851;51.166;4.760;2023-04-02T08:22:45;15.40;;;11.63;;
27383;SDS011;14851;51.166;4.760;2023-04-02T08:25:11;14.18;;;11.90;;
27383;SDS011;14851;51.166;4.760;2023-04-02T08:27:37;12.55;;;10.52;;
27383;SDS011;14851;51.166;4.760;2023-04-02T08:30:03;12.27;;;9.88;;
27383;SDS011;14851;51.166;4.760;2023-04-02T08:32:32;14.43;;;9.40;;
27383;SDS011;14851;51.166;4.760;2023-04-02T08:34:57;9.93;;;8.90;;
27383;SDS011;14851;51.166;4.760;2023-04-02T08:37:24;11.43;;;8.82;;
27383;SDS011;14851;51.166;4.760;2023-04-02T08:39:50;12.57;;;8.70;;
27383;SDS011;14851;51.166;4.760;2023-04-02T08:45:19;10.45;;;7.38;;
27383;SDS011;14851;51.166;4.760;2023-04-02T08:47:59;9.32;;;6.47;;
27383;SDS011;14851;51.166;4.760;2023-04-02T08:50:29;9.50;;;6.10;;
27383;SDS011;14851;51.166;4.760;2023-04-02T08:52:58;6.72;;;5.28;;
27383;SDS011;14851;51.166;4.760;2023-04-02T08:55:37;7.13;;;5.45;;
27383;SDS011;14851;51.166;4.760;2023-04-02T09:03:59;7.70;;;5.15;;
27383;SDS011;14851;51.166;4.760;2023-04-02T09:06:27;8.18;;;5.07;;
27383;SDS011;14851;51.166;4.760;2023-04-02T09:08:55;7.40;;;4.70;;
27383;SDS011;14851;51.166;4.760;2023-04-02T09:11:23;7.90;;;4.88;;
27383;SDS011;14851;51.166;4.760;2023-04-02T09:14:20;6.68;;;4.40;;
27383;SDS011;14851;51.166;4.760;2023-04-02T09:17:13;6.28;;;3.90;;
27383;SDS011;14851;51.166;4.760;2023-04-02T09:19:51;5.63;;;3.80;;
27383;SDS011;14851;51.166;4.760;2023-04-02T09:22:37;6.18;;;4.15;;
27383;SDS011;14851;51.166;4.760;2023-04-02T09:25:05;7.82;;;4.05;;
27383;SDS011;14851;51.166;4.760;2023-04-02T09:27:38;5.60;;;3.97;;
27383;SDS011;14851;51.166;4.760;2023-04-02T09:32:55;8.48;;;3.75;;
27383;SDS011;14851;51.166;4.760;2023-04-02T09:35:31;8.77;;;3.72;;
27383;SDS011;14851;51.166;4.760;2023-04-02T09:45:53;5.85;;;3.67;;
27383;SDS011;14851;51.166;4.760;2023-04-02T09:48:33;8.38;;;3.97;;
27383;SDS011;14851;51.166;4.760;2023-04-02T09:53:47;6.03;;;3.42;;
27383;SDS011;14851;51.166;4.760;2023-04-02T09:56:19;6.15;;;3.72;;
27383;SDS011;14851;51.166;4.760;2023-04-02T10:01:35;5.95;;;3.40;;
27383;SDS011;14851;51.166;4.760;2023-04-02T10:04:28;5.95;;;2.90;;
27383;SDS011;14851;51.166;4.760;2023-04-02T10:15:47;6.57;;;2.78;;
27383;SDS011;14851;51.166;4.760;2023-04-02T10:21:07;5.88;;;3.00;;
27383;SDS011;14851;51.166;4.760;2023-04-02T10:23:35;6.60;;;2.45;;
27383;SDS011;14851;51.166;4.760;2023-04-02T10:33:50;6.03;;;2.45;;
27383;SDS011;14851;51.166;4.760;2023-04-02T10:36:30;4.45;;;2.20;;
27383;SDS011;14851;51.166;4.760;2023-04-02T10:49:51;4.13;;;2.28;;
27383;SDS011;14851;51.166;4.760;2023-04-02T10:52:45;4.55;;;2.22;;
27383;SDS011;14851;51.166;4.760;2023-04-02T10:55:21;5.10;;;2.25;;
27383;SDS011;14851;51.166;4.760;2023-04-02T10:57:50;6.57;;;2.53;;
27383;SDS011;14851;51.166;4.760;2023-04-02T11:00:22;3.17;;;1.70;;
27383;SDS011;14851;51.166;4.760;2023-04-02T11:08:25;4.70;;;2.10;;
27383;SDS011;14851;51.166;4.760;2023-04-02T11:10:59;7.03;;;2.33;;
27383;SDS011;14851;51.166;4.760;2023-04-02T11:16:41;6.68;;;2.47;;
27383;SDS011;14851;51.166;4.760;2023-04-02T11:21:43;3.33;;;1.67;;
27383;SDS011;14851;51.166;4.760;2023-04-02T11:26:50;4.72;;;1.85;;
27383;SDS011;14851;51.166;4.760;2023-04-02T11:29:27;6.40;;;2.10;;
27383;SDS011;14851;51.166;4.760;2023-04-02T11:37:10;5.75;;;2.20;;
27383;SDS011;14851;51.166;4.760;2023-04-02T11:40:00;7.78;;;3.03;;
27383;SDS011;14851;51.166;4.760;2023-04-02T11:42:35;5.43;;;2.28;;
27383;SDS011;14851;51.166;4.760;2023-04-02T11:50:34;5.22;;;2.45;;
27383;SDS011;14851;51.166;4.760;2023-04-02T11:55:37;4.50;;;2.28;;
27383;SDS011;14851;51.166;4.760;2023-04-02T12:09:42;5.97;;;2.28;;
27383;SDS011;14851;51.166;4.760;2023-04-02T12:12:16;4.43;;;2.10;;
27383;SDS011;14851;51.166;4.760;2023-04-02T12:14:55;4.78;;;2.15;;
27383;SDS011;14851;51.166;4.760;2023-04-02T12:17:30;4.72;;;2.20;;
27383;SDS011;14851;51.166;4.760;2023-04-02T12:22:38;3.20;;;2.03;;
27383;SDS011;14851;51.166;4.760;2023-04-02T12:25:24;5.40;;;2.30;;
27383;SDS011;14851;51.166;4.760;2023-04-02T12:28:13;5.68;;;2.13;;
27383;SDS011;14851;51.166;4.760;2023-04-02T12:30:50;5.65;;;2.20;;
27383;SDS011;14851;51.166;4.760;2023-04-02T12:35:57;4.72;;;2.15;;
27383;SDS011;14851;51.166;4.760;2023-04-02T12:38:29;5.40;;;1.85;;
27383;SDS011;14851;51.166;4.760;2023-04-02T12:41:00;4.13;;;1.90;;
27383;SDS011;14851;51.166;4.760;2023-04-02T12:43:44;4.60;;;1.88;;
27383;SDS011;14851;51.166;4.760;2023-04-02T12:46:11;3.63;;;2.55;;
27383;SDS011;14851;51.166;4.760;2023-04-02T12:48:39;5.22;;;1.85;;
27383;SDS011;14851;51.166;4.760;2023-04-02T12:51:05;4.80;;;1.77;;
27383;SDS011;14851;51.166;4.760;2023-04-02T12:53:35;5.50;;;2.05;;
27383;SDS011;14851;51.166;4.760;2023-04-02T12:56:04;3.33;;;1.80;;
27383;SDS011;14851;51.166;4.760;2023-04-02T13:01:35;3.65;;;1.83;;
27383;SDS011;14851;51.166;4.760;2023-04-02T13:06:36;4.25;;;2.08;;
27383;SDS011;14851;51.166;4.760;2023-04-02T13:09:24;4.50;;;1.90;;
27383;SDS011;14851;51.166;4.760;2023-04-02T13:11:51;6.53;;;2.20;;
27383;SDS011;14851;51.166;4.760;2023-04-02T13:14:19;4.38;;;2.10;;
27383;SDS011;14851;51.166;4.760;2023-04-02T13:16:46;5.18;;;2.40;;
27383;SDS011;14851;51.166;4.760;2023-04-02T13:22:00;4.63;;;1.98;;
27383;SDS011;14851;51.166;4.760;2023-04-02T13:24:29;5.00;;;2.28;;
27383;SDS011;14851;51.166;4.760;2023-04-02T13:26:57;6.57;;;2.37;;
27383;SDS011;14851;51.166;4.760;2023-04-02T13:29:32;6.97;;;2.58;;
27383;SDS011;14851;51.166;4.760;2023-04-02T13:32:05;5.18;;;2.60;;
27383;SDS011;14851;51.166;4.760;2023-04-02T13:34:36;4.10;;;2.50;;
27383;SDS011;14851;51.166;4.760;2023-04-02T13:37:02;4.05;;;2.50;;
27383;SDS011;14851;51.166;4.760;2023-04-02T13:39:28;5.22;;;2.95;;
27383;SDS011;14851;51.166;4.760;2023-04-02T13:41:55;5.88;;;2.65;;
27383;SDS011;14851;51.166;4.760;2023-04-02T13:44:23;7.38;;;2.80;;
27383;SDS011;14851;51.166;4.760;2023-04-02T13:46:54;7.43;;;2.88;;
27383;SDS011;14851;51.166;4.760;2023-04-02T13:49:22;5.32;;;2.67;;
27383;SDS011;14851;51.166;4.760;2023-04-02T13:51:49;8.00;;;2.78;;
27383;SDS011;14851;51.166;4.760;2023-04-02T13:54:31;5.35;;;2.75;;
27383;SDS011;14851;51.166;4.760;2023-04-02T13:57:07;5.40;;;2.78;;
27383;SDS011;14851;51.166;4.760;2023-04-02T13:59:33;4.53;;;2.60;;
27383;SDS011;14851;51.166;4.760;2023-04-02T14:02:01;5.85;;;2.58;;
27383;SDS011;14851;51.166;4.760;2023-04-02T14:04:39;5.25;;;2.47;;
27383;SDS011;14851;51.166;4.760;2023-04-02T14:10:34;6.25;;;2.67;;
27383;SDS011;14851;51.166;4.760;2023-04-02T14:13:22;6.78;;;2.35;;
27383;SDS011;14851;51.166;4.760;2023-04-02T14:22:16;5.65;;;1.95;;
27383;SDS011;14851;51.166;4.760;2023-04-02T14:24:48;5.45;;;2.17;;
27383;SDS011;14851;51.166;4.760;2023-04-02T14:28:01;6.63;;;2.30;;
27383;SDS011;14851;51.166;4.760;2023-04-02T14:44:11;8.07;;;2.00;;
27383;SDS011;14851;51.166;4.760;2023-04-02T14:46:40;4.18;;;1.60;;
27383;SDS011;14851;51.166;4.760;2023-04-02T14:52:01;2.38;;;1.42;;
27383;SDS011;14851;51.166;4.760;2023-04-02T14:54:58;3.60;;;1.17;;
27383;SDS011;14851;51.166;4.760;2023-04-02T15:00:16;2.42;;;0.98;;
27383;SDS011;14851;51.166;4.760;2023-04-02T15:03:11;2.58;;;1.13;;
27383;SDS011;14851;51.166;4.760;2023-04-02T15:05:47;2.90;;;1.40;;
27383;SDS011;14851;51.166;4.760;2023-04-02T15:11:52;2.85;;;1.42;;
27383;SDS011;14851;51.166;4.760;2023-04-02T15:16:28;4.40;;;1.45;;
27383;SDS011;14851;51.166;4.760;2023-04-02T15:19:00;3.58;;;1.30;;
27383;SDS011;14851;51.166;4.760;2023-04-02T15:30:10;2.42;;;1.50;;
27383;SDS011;14851;51.166;4.760;2023-04-02T15:38:46;5.35;;;1.88;;
27383;SDS011;14851;51.166;4.760;2023-04-02T15:41:26;5.95;;;2.38;;
27383;SDS011;14851;51.166;4.760;2023-04-02T16:00:19;4.93;;;2.10;;
27383;SDS011;14851;51.166;4.760;2023-04-02T16:05:57;2.42;;;1.60;;
27383;SDS011;14851;51.166;4.760;2023-04-02T16:11:23;3.80;;;1.83;;
27383;SDS011;14851;51.166;4.760;2023-04-02T16:13:49;3.13;;;1.85;;
27383;SDS011;14851;51.166;4.760;2023-04-02T16:22:24;3.90;;;2.40;;
27383;SDS011;14851;51.166;4.760;2023-04-02T16:24:47;5.03;;;2.60;;
27383;SDS011;14851;51.166;4.760;2023-04-02T16:33:25;5.68;;;2.65;;
27383;SDS011;14851;51.166;4.760;2023-04-02T16:39:07;5.75;;;2.40;;
27383;SDS011;14851;51.166;4.760;2023-04-02T16:41:46;4.70;;;2.03;;
27383;SDS011;14851;51.166;4.760;2023-04-02T16:50:26;3.40;;;1.88;;
27383;SDS011;14851;51.166;4.760;2023-04-02T16:55:57;4.85;;;1.92;;
27383;SDS011;14851;51.166;4.760;2023-04-02T16:58:37;7.10;;;2.67;;
27383;SDS011;14851;51.166;4.760;2023-04-02T17:01:23;4.78;;;2.78;;
27383;SDS011;14851;51.166;4.760;2023-04-02T17:17:11;5.03;;;2.05;;
27383;SDS011;14851;51.166;4.760;2023-04-02T17:19:39;4.63;;;2.10;;
27383;SDS011;14851;51.166;4.760;2023-04-02T17:22:16;6.43;;;2.33;;
27383;SDS011;14851;51.166;4.760;2023-04-02T17:24:46;6.57;;;2.60;;
27383;SDS011;14851;51.166;4.760;2023-04-02T17:30:01;6.18;;;2.55;;
27383;SDS011;14851;51.166;4.760;2023-04-02T17:32:36;5.80;;;2.28;;
27383;SDS011;14851;51.166;4.760;2023-04-02T17:43:28;5.60;;;2.10;;
27383;SDS011;14851;51.166;4.760;2023-04-02T17:46:36;4.22;;;2.00;;
27383;SDS011;14851;51.166;4.760;2023-04-02T17:51:43;4.63;;;2.00;;
27383;SDS011;14851;51.166;4.760;2023-04-02T17:54:24;6.47;;;2.28;;
27383;SDS011;14851;51.166;4.760;2023-04-02T18:05:22;4.63;;;1.88;;
27383;SDS011;14851;51.166;4.760;2023-04-02T18:10:55;3.83;;;2.40;;
27383;SDS011;14851;51.166;4.760;2023-04-02T18:13:40;4.82;;;2.40;;
27383;SDS011;14851;51.166;4.760;2023-04-02T18:21:58;4.68;;;2.53;;
27383;SDS011;14851;51.166;4.760;2023-04-02T18:30:25;8.88;;;3.88;;
27383;SDS011;14851;51.166;4.760;2023-04-02T18:33:03;6.97;;;2.78;;
27383;SDS011;14851;51.166;4.760;2023-04-02T18:35:38;5.57;;;2.50;;
27383;SDS011;14851;51.166;4.760;2023-04-02T18:41:02;4.15;;;2.10;;
27383;SDS011;14851;51.166;4.760;2023-04-02T18:51:22;5.45;;;2.78;;
27383;SDS011;14851;51.166;4.760;2023-04-02T18:54:16;5.13;;;2.33;;
27383;SDS011;14851;51.166;4.760;2023-04-02T18:56:44;5.25;;;2.65;;
27383;SDS011;14851;51.166;4.760;2023-04-02T19:01:59;6.05;;;2.60;;
27383;SDS011;14851;51.166;4.760;2023-04-02T19:05:02;4.07;;;2.28;;
27383;SDS011;14851;51.166;4.760;2023-04-02T19:07:32;4.93;;;2.28;;
27383;SDS011;14851;51.166;4.760;2023-04-02T19:10:07;6.72;;;2.22;;
27383;SDS011;14851;51.166;4.760;2023-04-02T19:12:52;6.20;;;2.75;;
27383;SDS011;14851;51.166;4.760;2023-04-02T19:15:18;5.15;;;2.58;;
27383;SDS011;14851;51.166;4.760;2023-04-02T19:17:47;6.40;;;2.63;;
27383;SDS011;14851;51.166;4.760;2023-04-02T19:28:39;4.15;;;2.70;;
27383;SDS011;14851;51.166;4.760;2023-04-02T19:36:50;4.72;;;2.20;;
27383;SDS011;14851;51.166;4.760;2023-04-02T19:39:39;4.35;;;2.50;;
27383;SDS011;14851;51.166;4.760;2023-04-02T19:42:23;4.93;;;2.30;;
27383;SDS011;14851;51.166;4.760;2023-04-02T19:48:20;4.57;;;2.75;;
27383;SDS011;14851;51.166;4.760;2023-04-02T19:50:51;6.43;;;2.88;;
27383;SDS011;14851;51.166;4.760;2023-04-02T19:53:19;4.57;;;2.83;;
27383;SDS011;14851;51.166;4.760;2023-04-02T19:55:45;6.63;;;2.50;;
27383;SDS011;14851;51.166;4.760;2023-04-02T19:58:29;4.63;;;2.78;;
27383;SDS011;14851;51.166;4.760;2023-04-02T20:00:59;5.50;;;2.95;;
27383;SDS011;14851;51.166;4.760;2023-04-02T20:03:27;4.20;;;2.70;;
27383;SDS011;14851;51.166;4.760;2023-04-02T20:05:55;5.97;;;2.85;;
27383;SDS011;14851;51.166;4.760;2023-04-02T20:08:23;5.55;;;3.00;;
27383;SDS011;14851;51.166;4.760;2023-04-02T20:10:55;5.33;;;2.80;;
27383;SDS011;14851;51.166;4.760;2023-04-02T20:13:25;3.15;;;2.70;;
27383;SDS011;14851;51.166;4.760;2023-04-02T20:15:59;5.18;;;3.20;;
27383;SDS011;14851;51.166;4.760;2023-04-02T20:18:31;6.18;;;3.30;;
27383;SDS011;14851;51.166;4.760;2023-04-02T20:20:57;8.10;;;3.47;;
27383;SDS011;14851;51.166;4.760;2023-04-02T20:25:55;7.43;;;3.30;;
27383;SDS011;14851;51.166;4.760;2023-04-02T20:28:22;5.72;;;3.78;;
27383;SDS011;14851;51.166;4.760;2023-04-02T20:30:51;5.63;;;3.67;;
27383;SDS011;14851;51.166;4.760;2023-04-02T20:33:18;5.63;;;3.42;;
27383;SDS011;14851;51.166;4.760;2023-04-02T20:35:45;4.95;;;3.22;;
27383;SDS011;14851;51.166;4.760;2023-04-02T20:38:13;5.55;;;3.08;;
27383;SDS011;14851;51.166;4.760;2023-04-02T20:40:42;4.57;;;3.30;;
27383;SDS011;14851;51.166;4.760;2023-04-02T20:43:10;5.78;;;3.15;;
27383;SDS011;14851;51.166;4.760;2023-04-02T20:45:36;6.60;;;3.45;;
27383;SDS011;14851;51.166;4.760;2023-04-02T20:48:02;6.97;;;3.53;;
27383;SDS011;14851;51.166;4.760;2023-04-02T20:50:29;6.43;;;3.85;;
27383;SDS011;14851;51.166;4.760;2023-04-02T20:52:56;7.55;;;3.67;;
27383;SDS011;14851;51.166;4.760;2023-04-02T20:55:24;5.35;;;3.60;;
27383;SDS011;14851;51.166;4.760;2023-04-02T20:57:49;6.88;;;3.90;;
27383;SDS011;14851;51.166;4.760;2023-04-02T21:00:15;8.32;;;4.18;;
27383;SDS011;14851;51.166;4.760;2023-04-02T21:02:41;7.60;;;4.97;;
27383;SDS011;14851;51.166;4.760;2023-04-02T21:05:10;6.35;;;3.70;;
27383;SDS011;14851;51.166;4.760;2023-04-02T21:07:38;6.07;;;4.45;;
27383;SDS011;14851;51.166;4.760;2023-04-02T21:10:06;9.07;;;4.68;;
27383;SDS011;14851;51.166;4.760;2023-04-02T21:12:32;5.40;;;4.18;;
27383;SDS011;14851;51.166;4.760;2023-04-02T21:14:58;5.13;;;4.22;;
27383;SDS011;14851;51.166;4.760;2023-04-02T21:17:24;7.03;;;4.47;;
27383;SDS011;14851;51.166;4.760;2023-04-02T21:19:52;5.60;;;4.18;;
27383;SDS011;14851;51.166;4.760;2023-04-02T21:22:18;10.68;;;4.55;;
27383;SDS011;14851;51.166;4.760;2023-04-02T21:24:44;7.68;;;4.68;;
27383;SDS011;14851;51.166;4.760;2023-04-02T21:27:10;7.78;;;4.63;;
27383;SDS011;14851;51.166;4.760;2023-04-02T21:29:36;6.38;;;4.63;;
27383;SDS011;14851;51.166;4.760;2023-04-02T21:32:02;8.45;;;5.18;;
27383;SDS011;14851;51.166;4.760;2023-04-02T21:34:29;9.38;;;4.72;;
27383;SDS011;14851;51.166;4.760;2023-04-02T21:36:54;6.68;;;5.13;;
27383;SDS011;14851;51.166;4.760;2023-04-02T21:39:25;7.30;;;4.75;;
27383;SDS011;14851;51.166;4.760;2023-04-02T21:41:51;7.13;;;4.95;;
27383;SDS011;14851;51.166;4.760;2023-04-02T21:44:20;7.47;;;5.00;;
27383;SDS011;14851;51.166;4.760;2023-04-02T21:46:47;5.82;;;5.13;;
27383;SDS011;14851;51.166;4.760;2023-04-02T21:49:14;6.15;;;4.47;;
27383;SDS011;14851;51.166;4.760;2023-04-02T21:51:42;9.50;;;4.80;;